BYU2
, Provo
Last Weather Update:10/30/2011 11:00:00 PM
Date
ETo
ETc
Rain
Irrigation
Req
Temp
Max
Temp
Min
Temp
Avg
Avg RH
Avg Wind
Avg Solar
inches
inches
incehs
inches
F
F
F
%
%
watts/m2
9/1/2011 0.23" 0.16" 0.00" 0.16" 88.2° 59.5° 75.6° 27.1% 3.3 MPH 292.1w/m2
9/2/2011 0.18" 0.12" 0.00" 0.12" 83.2° 54.8° 68.2° 45.9% 1.8 MPH 276.5w/m2
9/3/2011 0.18" 0.12" 0.00" 0.12" 84.9° 53.2° 68.1° 43.5% 1.6 MPH 282.4w/m2
9/4/2011 0.18" 0.12" 0.00" 0.12" 88.3° 53.5° 69.9° 41.0% 1.5 MPH 279.3w/m2
9/5/2011 0.13" 0.09" 0.00" 0.09" 84.7° 57.5° 69.8° 44.0% 2.8 MPH 150.6w/m2
9/6/2011 0.19" 0.13" 0.00" 0.13" 79.6° 58.0° 69.5° 55.9% 3.2 MPH 268.9w/m2
9/7/2011 0.17" 0.12" 0.00" 0.12" 82.7° 56.8° 69.2° 50.4% 2.2 MPH 265.5w/m2
9/8/2011 0.17" 0.11" 0.00" 0.11" 83.6° 57.2° 69.3° 52.3% 2.1 MPH 260.5w/m2
9/9/2011 0.15" 0.10" 0.05" 0.05" 81.2° 57.7° 68.3° 54.8% 2.3 MPH 216.5w/m2
9/10/2011 0.15" 0.10" 0.02" 0.08" 79.4° 56.4° 67.6° 51.3% 3.1 MPH 180.1w/m2
9/11/2011 0.13" 0.08" 0.07" 0.01" 79.4° 55.7° 64.6° 61.3% 2.6 MPH 177.1w/m2
9/12/2011 0.14" 0.10" 0.00" 0.10" 79.1° 53.3° 64.9° 58.1% 2.0 MPH 230.4w/m2
9/13/2011 0.17" 0.11" 0.00" 0.11" 79.5° 53.8° 66.0° 50.6% 2.1 MPH 257.1w/m2
9/14/2011 0.14" 0.09" 0.00" 0.09" 77.8° 54.5° 64.3° 57.5% 2.4 MPH 209.2w/m2
9/15/2011 0.15" 0.10" 0.00" 0.10" 77.1° 53.6° 64.7° 59.5% 2.0 MPH 241.0w/m2
9/16/2011 0.11" 0.07" 0.21" -0.14" 76.2° 53.4° 60.6° 74.4% 2.2 MPH 171.4w/m2
9/17/2011 0.14" 0.09" 0.14" -0.05" 71.7° 53.0° 61.1° 70.8% 1.9 MPH 220.3w/m2
9/18/2011 0.14" 0.09" 0.00" 0.09" 77.3° 48.5° 61.9° 60.4% 0.9 MPH 246.5w/m2
9/19/2011 0.14" 0.09" 0.00" 0.09" 81.6° 49.9° 64.8° 54.1% 0.8 MPH 239.7w/m2
9/20/2011 0.15" 0.10" 0.00" 0.10" 78.6° 51.2° 63.2° 55.4% 1.1 MPH 136.6w/m2
9/21/2011 0.15" 0.09" 0.00" 0.09" 79.5° 51.2° 68.4° 42.3% 1.3 MPH 340.2w/m2
9/22/2011 0.14" 0.09" 0.00" 0.09" 80.8° 47.8° 63.5° 48.6% 0.8 MPH 244.9w/m2
9/23/2011 0.14" 0.09" 0.00" 0.09" 82.7° 48.5° 64.5° 47.1% 0.8 MPH 241.3w/m2
9/24/2011 0.14" 0.09" 0.00" 0.09" 84.4° 48.9° 65.0° 47.3% 0.8 MPH 243.4w/m2
9/25/2011 0.14" 0.09" 0.00" 0.09" 86.7° 49.4° 67.2° 44.3% 1.0 MPH 235.4w/m2
9/26/2011 0.14" 0.09" 0.00" 0.09" 81.3° 57.4° 68.2° 46.2% 1.8 MPH 226.1w/m2
9/27/2011 0.13" 0.08" 0.00" 0.08" 84.3° 51.7° 66.4° 50.7% 0.8 MPH 229.2w/m2
9/28/2011 0.13" 0.08" 0.00" 0.08" 85.9° 52.7° 67.8° 49.3% 0.9 MPH 224.0w/m2
9/29/2011 0.14" 0.08" 0.00" 0.08" 85.4° 52.0° 67.2° 46.2% 1.1 MPH 227.9w/m2
9/30/2011 0.14" 0.08" 0.00" 0.08" 88.9° 53.1° 69.6° 42.8% 1.1 MPH 217.7w/m2
Totals: 4.53" 2.95" 0.49" 2.46" 88.9° 47.8° 66.6° 51.1% 1.7 MPH 234.4w/m2